sensor_id;sensor_type;location;lat;lon;timestamp;temperature;humidity
10419;DHT22;5256;48.728;9.140;2023-05-10T00:01:33;12.70;99.90
10419;DHT22;5256;48.728;9.140;2023-05-10T00:03:59;12.70;99.90
10419;DHT22;5256;48.728;9.140;2023-05-10T00:06:24;12.70;99.90
10419;DHT22;5256;48.728;9.140;2023-05-10T00:08:50;12.70;99.90
10419;DHT22;5256;48.728;9.140;2023-05-10T00:11:16;12.70;99.90
10419;DHT22;5256;48.728;9.140;2023-05-10T00:13:41;12.70;99.90
10419;DHT22;5256;48.728;9.140;2023-05-10T00:16:07;12.50;99.90
10419;DHT22;5256;48.728;9.140;2023-05-10T00:18:32;12.50;99.90
10419;DHT22;5256;48.728;9.140;2023-05-10T00:20:58;12.40;99.90
10419;DHT22;5256;48.728;9.140;2023-05-10T00:23:23;12.30;99.90
10419;DHT22;5256;48.728;9.140;2023-05-10T00:25:49;12.20;99.90
10419;DHT22;5256;48.728;9.140;2023-05-10T00:28:14;12.10;99.90
10419;DHT22;5256;48.728;9.140;2023-05-10T00:30:40;12.10;99.90
10419;DHT22;5256;48.728;9.140;2023-05-10T00:33:05;12.10;99.90
10419;DHT22;5256;48.728;9.140;2023-05-10T00:35:31;12.10;99.90
10419;DHT22;5256;48.728;9.140;2023-05-10T00:37:57;12.00;99.90
10419;DHT22;5256;48.728;9.140;2023-05-10T00:40:22;12.00;99.90
10419;DHT22;5256;48.728;9.140;2023-05-10T00:42:48;12.00;99.90
10419;DHT22;5256;48.728;9.140;2023-05-10T00:45:13;11.90;99.90
10419;DHT22;5256;48.728;9.140;2023-05-10T00:47:39;11.90;99.90
10419;DHT22;5256;48.728;9.140;2023-05-10T00:50:05;11.90;99.90
10419;DHT22;5256;48.728;9.140;2023-05-10T00:52:31;11.80;99.90
10419;DHT22;5256;48.728;9.140;2023-05-10T00:54:57;11.80;99.90
10419;DHT22;5256;48.728;9.140;2023-05-10T00:57:24;11.80;99.90
10419;DHT22;5256;48.728;9.140;2023-05-10T00:59:50;11.80;99.90
10419;DHT22;5256;48.728;9.140;2023-05-10T01:02:16;11.80;99.90
10419;DHT22;5256;48.728;9.140;2023-05-10T01:04:43;11.80;99.90
10419;DHT22;5256;48.728;9.140;2023-05-10T01:07:08;11.80;99.90
10419;DHT22;5256;48.728;9.140;2023-05-10T01:09:34;11.80;99.90
10419;DHT22;5256;48.728;9.140;2023-05-10T01:12:00;11.70;99.90
10419;DHT22;5256;48.728;9.140;2023-05-10T01:14:27;11.70;99.90
10419;DHT22;5256;48.728;9.140;2023-05-10T01:16:53;11.70;99.90
10419;DHT22;5256;48.728;9.140;2023-05-10T01:19:23;11.70;99.90
10419;DHT22;5256;48.728;9.140;2023-05-10T01:31:08;11.60;99.90
10419;DHT22;5256;48.728;9.140;2023-05-10T01:39:43;11.60;99.90
10419;DHT22;5256;48.728;9.140;2023-05-10T01:42:14;11.60;99.90
10419;DHT22;5256;48.728;9.140;2023-05-10T01:47:15;11.60;99.90
10419;DHT22;5256;48.728;9.140;2023-05-10T01:49:54;11.60;99.90
10419;DHT22;5256;48.728;9.140;2023-05-10T01:52:26;11.60;99.90
10419;DHT22;5256;48.728;9.140;2023-05-10T01:54:59;11.60;99.90
10419;DHT22;5256;48.728;9.140;2023-05-10T01:57:31;11.60;99.90
10419;DHT22;5256;48.728;9.140;2023-05-10T01:59:59;11.50;99.90
10419;DHT22;5256;48.728;9.140;2023-05-10T02:02:27;11.50;99.90
10419;DHT22;5256;48.728;9.140;2023-05-10T02:04:54;11.50;99.90
10419;DHT22;5256;48.728;9.140;2023-05-10T02:07:21;11.50;99.90
10419;DHT22;5256;48.728;9.140;2023-05-10T02:09:47;11.50;99.90
10419;DHT22;5256;48.728;9.140;2023-05-10T02:12:14;11.40;99.90
10419;DHT22;5256;48.728;9.140;2023-05-10T02:14:41;11.30;99.90
10419;DHT22;5256;48.728;9.140;2023-05-10T02:17:09;11.40;99.90
10419;DHT22;5256;48.728;9.140;2023-05-10T02:19:36;11.40;99.90
10419;DHT22;5256;48.728;9.140;2023-05-10T02:22:03;11.40;99.90
10419;DHT22;5256;48.728;9.140;2023-05-10T02:24:29;11.40;99.90
10419;DHT22;5256;48.728;9.140;2023-05-10T02:26:56;11.40;99.90
10419;DHT22;5256;48.728;9.140;2023-05-10T02:29:23;11.40;99.90
10419;DHT22;5256;48.728;9.140;2023-05-10T02:31:52;11.40;99.90
10419;DHT22;5256;48.728;9.140;2023-05-10T02:34:20;11.40;99.90
10419;DHT22;5256;48.728;9.140;2023-05-10T02:36:47;11.40;99.90
10419;DHT22;5256;48.728;9.140;2023-05-10T02:39:13;11.40;99.90
10419;DHT22;5256;48.728;9.140;2023-05-10T02:41:41;11.30;99.90
10419;DHT22;5256;48.728;9.140;2023-05-10T02:44:08;11.30;99.90
10419;DHT22;5256;48.728;9.140;2023-05-10T02:46:37;11.30;99.90
10419;DHT22;5256;48.728;9.140;2023-05-10T02:49:03;11.40;99.90
10419;DHT22;5256;48.728;9.140;2023-05-10T02:51:31;11.40;99.90
10419;DHT22;5256;48.728;9.140;2023-05-10T02:54:03;11.40;99.90
10419;DHT22;5256;48.728;9.140;2023-05-10T02:56:34;11.40;99.90
10419;DHT22;5256;48.728;9.140;2023-05-10T02:59:01;11.50;99.90
10419;DHT22;5256;48.728;9.140;2023-05-10T03:01:27;11.50;99.90
10419;DHT22;5256;48.728;9.140;2023-05-10T03:03:52;11.50;99.90
10419;DHT22;5256;48.728;9.140;2023-05-10T03:06:18;11.40;99.90
10419;DHT22;5256;48.728;9.140;2023-05-10T03:08:44;11.40;99.90
10419;DHT22;5256;48.728;9.140;2023-05-10T03:12:14;11.40;99.90
10419;DHT22;5256;48.728;9.140;2023-05-10T03:17:14;11.50;99.90
10419;DHT22;5256;48.728;9.140;2023-05-10T03:20:08;11.50;99.90
10419;DHT22;5256;48.728;9.140;2023-05-10T03:22:44;11.60;99.90
10419;DHT22;5256;48.728;9.140;2023-05-10T03:25:11;11.50;99.90
10419;DHT22;5256;48.728;9.140;2023-05-10T03:27:40;11.60;99.90
10419;DHT22;5256;48.728;9.140;2023-05-10T03:30:08;11.60;99.90
10419;DHT22;5256;48.728;9.140;2023-05-10T03:32:34;11.60;99.90
10419;DHT22;5256;48.728;9.140;2023-05-10T03:35:00;11.60;99.90
10419;DHT22;5256;48.728;9.140;2023-05-10T03:37:25;11.60;99.90
10419;DHT22;5256;48.728;9.140;2023-05-10T03:39:51;11.60;99.90
10419;DHT22;5256;48.728;9.140;2023-05-10T03:42:16;11.50;99.90
10419;DHT22;5256;48.728;9.140;2023-05-10T03:44:43;11.50;99.90
10419;DHT22;5256;48.728;9.140;2023-05-10T03:47:09;11.40;99.90
10419;DHT22;5256;48.728;9.140;2023-05-10T03:49:34;11.50;99.90
10419;DHT22;5256;48.728;9.140;2023-05-10T03:52:00;11.50;99.90
10419;DHT22;5256;48.728;9.140;2023-05-10T03:54:25;11.50;99.90
10419;DHT22;5256;48.728;9.140;2023-05-10T03:56:51;11.50;99.90
10419;DHT22;5256;48.728;9.140;2023-05-10T03:59:17;11.50;99.90
10419;DHT22;5256;48.728;9.140;2023-05-10T04:01:42;11.50;99.90
10419;DHT22;5256;48.728;9.140;2023-05-10T04:04:08;11.40;99.90
10419;DHT22;5256;48.728;9.140;2023-05-10T04:06:33;11.50;99.90
10419;DHT22;5256;48.728;9.140;2023-05-10T04:08:59;11.40;99.90
10419;DHT22;5256;48.728;9.140;2023-05-10T04:11:26;11.40;99.90
10419;DHT22;5256;48.728;9.140;2023-05-10T04:13:53;11.40;99.90
10419;DHT22;5256;48.728;9.140;2023-05-10T04:16:18;11.40;99.90
10419;DHT22;5256;48.728;9.140;2023-05-10T04:18:44;11.40;99.90
10419;DHT22;5256;48.728;9.140;2023-05-10T04:21:13;11.30;99.90
10419;DHT22;5256;48.728;9.140;2023-05-10T04:23:39;11.30;99.90
10419;DHT22;5256;48.728;9.140;2023-05-10T04:26:04;11.30;99.90
10419;DHT22;5256;48.728;9.140;2023-05-10T04:28:30;11.30;99.90
10419;DHT22;5256;48.728;9.140;2023-05-10T04:31:08;11.30;99.90
10419;DHT22;5256;48.728;9.140;2023-05-10T04:33:34;11.30;99.90
10419;DHT22;5256;48.728;9.140;2023-05-10T04:36:00;11.30;99.90
10419;DHT22;5256;48.728;9.140;2023-05-10T04:38:26;11.30;99.90
10419;DHT22;5256;48.728;9.140;2023-05-10T04:40:52;11.30;99.90
10419;DHT22;5256;48.728;9.140;2023-05-10T04:43:18;11.30;99.90
10419;DHT22;5256;48.728;9.140;2023-05-10T04:45:44;11.30;99.90
10419;DHT22;5256;48.728;9.140;2023-05-10T04:48:09;11.40;99.90
10419;DHT22;5256;48.728;9.140;2023-05-10T04:50:35;11.40;99.90
10419;DHT22;5256;48.728;9.140;2023-05-10T04:53:00;11.40;99.90
10419;DHT22;5256;48.728;9.140;2023-05-10T04:55:26;11.40;99.90
10419;DHT22;5256;48.728;9.140;2023-05-10T04:57:52;11.40;99.90
10419;DHT22;5256;48.728;9.140;2023-05-10T05:00:18;11.50;99.90
10419;DHT22;5256;48.728;9.140;2023-05-10T05:02:44;11.50;99.90
10419;DHT22;5256;48.728;9.140;2023-05-10T05:05:13;11.60;99.90
10419;DHT22;5256;48.728;9.140;2023-05-10T05:07:40;11.60;99.90
10419;DHT22;5256;48.728;9.140;2023-05-10T05:10:06;11.60;99.90
10419;DHT22;5256;48.728;9.140;2023-05-10T05:12:32;11.70;99.90
10419;DHT22;5256;48.728;9.140;2023-05-10T05:14:58;11.70;99.90
10419;DHT22;5256;48.728;9.140;2023-05-10T05:17:23;11.80;99.90
10419;DHT22;5256;48.728;9.140;2023-05-10T05:19:49;11.90;99.90
10419;DHT22;5256;48.728;9.140;2023-05-10T05:22:14;11.90;99.90
10419;DHT22;5256;48.728;9.140;2023-05-10T05:24:40;12.00;99.90
10419;DHT22;5256;48.728;9.140;2023-05-10T05:27:05;12.00;99.90
10419;DHT22;5256;48.728;9.140;2023-05-10T05:29:31;12.10;99.90
10419;DHT22;5256;48.728;9.140;2023-05-10T05:31:57;12.10;99.90
10419;DHT22;5256;48.728;9.140;2023-05-10T05:34:23;12.20;99.90
10419;DHT22;5256;48.728;9.140;2023-05-10T05:36:49;12.10;99.90
10419;DHT22;5256;48.728;9.140;2023-05-10T05:39:15;12.20;99.90
10419;DHT22;5256;48.728;9.140;2023-05-10T05:41:41;12.30;99.90
10419;DHT22;5256;48.728;9.140;2023-05-10T05:44:06;12.30;99.90
10419;DHT22;5256;48.728;9.140;2023-05-10T05:46:32;12.40;99.90
10419;DHT22;5256;48.728;9.140;2023-05-10T05:48:57;12.50;99.90
10419;DHT22;5256;48.728;9.140;2023-05-10T05:51:23;12.50;99.90
10419;DHT22;5256;48.728;9.140;2023-05-10T05:53:48;12.50;99.90
10419;DHT22;5256;48.728;9.140;2023-05-10T05:56:14;12.60;99.90
10419;DHT22;5256;48.728;9.140;2023-05-10T05:58:40;12.50;99.90
10419;DHT22;5256;48.728;9.140;2023-05-10T06:01:05;12.50;99.90
10419;DHT22;5256;48.728;9.140;2023-05-10T06:03:31;12.50;99.90
10419;DHT22;5256;48.728;9.140;2023-05-10T06:05:56;12.70;99.90
10419;DHT22;5256;48.728;9.140;2023-05-10T06:08:22;12.80;99.90
10419;DHT22;5256;48.728;9.140;2023-05-10T06:10:47;12.80;99.90
10419;DHT22;5256;48.728;9.140;2023-05-10T06:13:13;12.80;99.90
10419;DHT22;5256;48.728;9.140;2023-05-10T06:15:39;12.90;99.90
10419;DHT22;5256;48.728;9.140;2023-05-10T06:18:04;13.10;99.90
10419;DHT22;5256;48.728;9.140;2023-05-10T06:20:31;13.30;99.90
10419;DHT22;5256;48.728;9.140;2023-05-10T06:22:57;13.40;99.90
10419;DHT22;5256;48.728;9.140;2023-05-10T06:25:23;13.30;99.90
10419;DHT22;5256;48.728;9.140;2023-05-10T06:27:49;13.20;99.90
10419;DHT22;5256;48.728;9.140;2023-05-10T06:30:14;13.10;99.90
10419;DHT22;5256;48.728;9.140;2023-05-10T06:32:41;13.10;99.90
10419;DHT22;5256;48.728;9.140;2023-05-10T06:35:07;13.10;99.90
10419;DHT22;5256;48.728;9.140;2023-05-10T06:37:33;13.10;99.90
10419;DHT22;5256;48.728;9.140;2023-05-10T06:39:59;13.00;99.90
10419;DHT22;5256;48.728;9.140;2023-05-10T06:42:25;13.00;99.90
10419;DHT22;5256;48.728;9.140;2023-05-10T06:44:52;12.90;99.90
10419;DHT22;5256;48.728;9.140;2023-05-10T06:47:17;13.00;99.90
10419;DHT22;5256;48.728;9.140;2023-05-10T06:49:43;13.10;99.90
10419;DHT22;5256;48.728;9.140;2023-05-10T06:52:08;13.00;99.90
10419;DHT22;5256;48.728;9.140;2023-05-10T06:54:34;12.80;99.90
10419;DHT22;5256;48.728;9.140;2023-05-10T06:56:59;12.80;99.90
10419;DHT22;5256;48.728;9.140;2023-05-10T06:59:25;12.80;99.90
10419;DHT22;5256;48.728;9.140;2023-05-10T07:01:50;12.80;99.90
10419;DHT22;5256;48.728;9.140;2023-05-10T07:04:16;12.80;99.90
10419;DHT22;5256;48.728;9.140;2023-05-10T07:06:42;12.90;99.90
10419;DHT22;5256;48.728;9.140;2023-05-10T07:09:08;13.10;99.90
10419;DHT22;5256;48.728;9.140;2023-05-10T07:11:34;13.30;99.90
10419;DHT22;5256;48.728;9.140;2023-05-10T07:14:00;13.40;99.90
10419;DHT22;5256;48.728;9.140;2023-05-10T07:16:25;13.60;99.90
10419;DHT22;5256;48.728;9.140;2023-05-10T07:18:51;13.80;99.90
10419;DHT22;5256;48.728;9.140;2023-05-10T07:21:18;14.00;99.90
10419;DHT22;5256;48.728;9.140;2023-05-10T07:23:44;14.20;99.90
10419;DHT22;5256;48.728;9.140;2023-05-10T07:26:09;14.30;99.90
10419;DHT22;5256;48.728;9.140;2023-05-10T07:28:35;14.40;99.90
10419;DHT22;5256;48.728;9.140;2023-05-10T07:31:02;14.50;99.90
10419;DHT22;5256;48.728;9.140;2023-05-10T07:33:28;14.70;99.90
10419;DHT22;5256;48.728;9.140;2023-05-10T07:35:53;14.90;99.90
10419;DHT22;5256;48.728;9.140;2023-05-10T07:38:19;14.80;99.90
10419;DHT22;5256;48.728;9.140;2023-05-10T07:40:44;14.80;99.90
10419;DHT22;5256;48.728;9.140;2023-05-10T07:43:10;14.90;99.90
10419;DHT22;5256;48.728;9.140;2023-05-10T07:45:36;14.90;99.90
10419;DHT22;5256;48.728;9.140;2023-05-10T07:48:01;14.80;99.90
10419;DHT22;5256;48.728;9.140;2023-05-10T07:50:27;14.60;99.90
10419;DHT22;5256;48.728;9.140;2023-05-10T07:52:52;14.50;99.90
10419;DHT22;5256;48.728;9.140;2023-05-10T07:55:18;14.40;99.90
10419;DHT22;5256;48.728;9.140;2023-05-10T07:57:46;14.40;99.90
10419;DHT22;5256;48.728;9.140;2023-05-10T08:00:13;14.40;99.90
10419;DHT22;5256;48.728;9.140;2023-05-10T08:02:41;14.40;99.90
10419;DHT22;5256;48.728;9.140;2023-05-10T08:05:07;14.30;99.90
10419;DHT22;5256;48.728;9.140;2023-05-10T08:07:33;14.20;99.90
10419;DHT22;5256;48.728;9.140;2023-05-10T08:09:59;14.20;99.90
10419;DHT22;5256;48.728;9.140;2023-05-10T08:12:24;14.20;99.90
10419;DHT22;5256;48.728;9.140;2023-05-10T08:14:50;14.20;99.90
10419;DHT22;5256;48.728;9.140;2023-05-10T08:17:16;14.20;99.90
10419;DHT22;5256;48.728;9.140;2023-05-10T08:19:41;14.20;99.90
10419;DHT22;5256;48.728;9.140;2023-05-10T08:22:07;14.40;99.90
10419;DHT22;5256;48.728;9.140;2023-05-10T08:24:32;14.60;99.90
10419;DHT22;5256;48.728;9.140;2023-05-10T08:27:00;14.80;99.90
10419;DHT22;5256;48.728;9.140;2023-05-10T08:29:26;14.90;99.90
10419;DHT22;5256;48.728;9.140;2023-05-10T08:31:51;15.20;99.90
10419;DHT22;5256;48.728;9.140;2023-05-10T08:34:17;15.30;99.90
10419;DHT22;5256;48.728;9.140;2023-05-10T08:36:42;15.20;99.90
10419;DHT22;5256;48.728;9.140;2023-05-10T08:39:08;15.30;99.90
10419;DHT22;5256;48.728;9.140;2023-05-10T08:41:36;15.30;99.90
10419;DHT22;5256;48.728;9.140;2023-05-10T08:44:04;15.30;99.90
10419;DHT22;5256;48.728;9.140;2023-05-10T08:46:31;15.20;99.90
10419;DHT22;5256;48.728;9.140;2023-05-10T08:49:01;15.10;99.90
10419;DHT22;5256;48.728;9.140;2023-05-10T08:51:29;15.00;99.90
10419;DHT22;5256;48.728;9.140;2023-05-10T08:53:57;15.10;99.90
10419;DHT22;5256;48.728;9.140;2023-05-10T08:56:23;15.30;99.90
10419;DHT22;5256;48.728;9.140;2023-05-10T08:58:49;15.30;99.90
10419;DHT22;5256;48.728;9.140;2023-05-10T09:01:16;15.30;99.90
10419;DHT22;5256;48.728;9.140;2023-05-10T09:03:43;15.30;99.90
10419;DHT22;5256;48.728;9.140;2023-05-10T09:06:12;15.30;99.90
10419;DHT22;5256;48.728;9.140;2023-05-10T09:08:38;15.30;99.90
10419;DHT22;5256;48.728;9.140;2023-05-10T09:11:05;15.50;99.90
10419;DHT22;5256;48.728;9.140;2023-05-10T09:13:31;15.60;99.90
10419;DHT22;5256;48.728;9.140;2023-05-10T09:15:57;15.70;99.90
10419;DHT22;5256;48.728;9.140;2023-05-10T09:18:23;15.70;99.90
10419;DHT22;5256;48.728;9.140;2023-05-10T09:20:49;15.50;99.90
10419;DHT22;5256;48.728;9.140;2023-05-10T09:23:14;15.50;99.90
10419;DHT22;5256;48.728;9.140;2023-05-10T09:25:41;15.30;99.90
10419;DHT22;5256;48.728;9.140;2023-05-10T09:28:08;14.90;99.90
10419;DHT22;5256;48.728;9.140;2023-05-10T09:30:36;14.60;99.90
10419;DHT22;5256;48.728;9.140;2023-05-10T09:33:02;14.50;99.90
10419;DHT22;5256;48.728;9.140;2023-05-10T09:35:30;14.40;99.90
10419;DHT22;5256;48.728;9.140;2023-05-10T09:37:59;14.50;99.90
10419;DHT22;5256;48.728;9.140;2023-05-10T09:40:26;14.60;99.90
10419;DHT22;5256;48.728;9.140;2023-05-10T09:43:00;14.80;99.90
10419;DHT22;5256;48.728;9.140;2023-05-10T09:45:28;15.20;99.90
10419;DHT22;5256;48.728;9.140;2023-05-10T09:47:55;15.50;99.90
10419;DHT22;5256;48.728;9.140;2023-05-10T09:50:21;15.80;99.90
10419;DHT22;5256;48.728;9.140;2023-05-10T09:52:53;16.10;99.90
10419;DHT22;5256;48.728;9.140;2023-05-10T09:55:23;16.40;99.90
10419;DHT22;5256;48.728;9.140;2023-05-10T09:57:58;16.50;99.90
10419;DHT22;5256;48.728;9.140;2023-05-10T10:00:25;16.60;99.90
10419;DHT22;5256;48.728;9.140;2023-05-10T10:02:56;16.60;99.90
10419;DHT22;5256;48.728;9.140;2023-05-10T10:05:31;16.60;99.90
10419;DHT22;5256;48.728;9.140;2023-05-10T10:07:59;16.70;99.90
10419;DHT22;5256;48.728;9.140;2023-05-10T10:10:25;16.70;99.90
10419;DHT22;5256;48.728;9.140;2023-05-10T10:12:51;16.90;99.90
10419;DHT22;5256;48.728;9.140;2023-05-10T10:15:17;17.20;99.90
10419;DHT22;5256;48.728;9.140;2023-05-10T10:17:43;17.10;99.90
10419;DHT22;5256;48.728;9.140;2023-05-10T10:20:09;16.90;99.90
10419;DHT22;5256;48.728;9.140;2023-05-10T10:22:37;16.50;99.90
10419;DHT22;5256;48.728;9.140;2023-05-10T10:25:04;16.10;99.90
10419;DHT22;5256;48.728;9.140;2023-05-10T10:30:25;15.90;99.90
10419;DHT22;5256;48.728;9.140;2023-05-10T10:35:31;16.10;99.90
10419;DHT22;5256;48.728;9.140;2023-05-10T10:37:57;16.40;99.90
10419;DHT22;5256;48.728;9.140;2023-05-10T10:40:33;17.00;99.90
10419;DHT22;5256;48.728;9.140;2023-05-10T10:46:13;17.20;99.90
10419;DHT22;5256;48.728;9.140;2023-05-10T10:51:23;17.20;99.90
10419;DHT22;5256;48.728;9.140;2023-05-10T10:53:49;17.10;99.90
10419;DHT22;5256;48.728;9.140;2023-05-10T10:56:15;17.10;99.90
10419;DHT22;5256;48.728;9.140;2023-05-10T10:58:49;16.60;99.90
10419;DHT22;5256;48.728;9.140;2023-05-10T11:01:18;16.00;99.90
10419;DHT22;5256;48.728;9.140;2023-05-10T11:06:35;15.10;99.90
10419;DHT22;5256;48.728;9.140;2023-05-10T11:09:11;14.90;99.90
10419;DHT22;5256;48.728;9.140;2023-05-10T11:11:50;14.90;99.90
10419;DHT22;5256;48.728;9.140;2023-05-10T11:14:20;14.80;99.90
10419;DHT22;5256;48.728;9.140;2023-05-10T11:16:46;14.80;99.90
10419;DHT22;5256;48.728;9.140;2023-05-10T11:19:13;15.00;99.90
10419;DHT22;5256;48.728;9.140;2023-05-10T11:24:26;14.90;99.90
10419;DHT22;5256;48.728;9.140;2023-05-10T11:26:53;15.00;99.90
10419;DHT22;5256;48.728;9.140;2023-05-10T11:29:19;14.90;99.90
10419;DHT22;5256;48.728;9.140;2023-05-10T11:31:46;14.90;99.90
10419;DHT22;5256;48.728;9.140;2023-05-10T11:34:23;14.80;99.90
10419;DHT22;5256;48.728;9.140;2023-05-10T11:36:53;14.80;99.90
10419;DHT22;5256;48.728;9.140;2023-05-10T11:39:29;15.00;99.90
10419;DHT22;5256;48.728;9.140;2023-05-10T11:41:55;15.20;99.90
10419;DHT22;5256;48.728;9.140;2023-05-10T11:44:21;15.10;99.90
10419;DHT22;5256;48.728;9.140;2023-05-10T11:46:46;15.20;99.90
10419;DHT22;5256;48.728;9.140;2023-05-10T11:49:12;15.20;99.90
10419;DHT22;5256;48.728;9.140;2023-05-10T11:51:39;14.90;99.90
10419;DHT22;5256;48.728;9.140;2023-05-10T11:54:09;14.60;99.90
10419;DHT22;5256;48.728;9.140;2023-05-10T11:56:36;14.60;99.90
10419;DHT22;5256;48.728;9.140;2023-05-10T11:59:03;14.60;99.90
10419;DHT22;5256;48.728;9.140;2023-05-10T12:01:29;14.70;99.90
10419;DHT22;5256;48.728;9.140;2023-05-10T12:03:56;14.70;99.90
10419;DHT22;5256;48.728;9.140;2023-05-10T12:06:30;15.00;99.90
10419;DHT22;5256;48.728;9.140;2023-05-10T12:08:56;15.30;99.90
10419;DHT22;5256;48.728;9.140;2023-05-10T12:11:25;15.60;99.90
10419;DHT22;5256;48.728;9.140;2023-05-10T12:13:51;15.80;99.90
10419;DHT22;5256;48.728;9.140;2023-05-10T12:16:19;16.00;99.90
10419;DHT22;5256;48.728;9.140;2023-05-10T12:18:48;16.00;99.90
10419;DHT22;5256;48.728;9.140;2023-05-10T12:21:15;16.10;99.90
10419;DHT22;5256;48.728;9.140;2023-05-10T12:23:41;15.90;99.90
10419;DHT22;5256;48.728;9.140;2023-05-10T12:26:09;15.90;99.90
10419;DHT22;5256;48.728;9.140;2023-05-10T12:28:38;15.90;99.90
10419;DHT22;5256;48.728;9.140;2023-05-10T12:31:05;15.90;99.90
10419;DHT22;5256;48.728;9.140;2023-05-10T12:33:39;16.00;99.90
10419;DHT22;5256;48.728;9.140;2023-05-10T12:36:06;16.10;99.90
10419;DHT22;5256;48.728;9.140;2023-05-10T12:41:04;16.20;99.90
10419;DHT22;5256;48.728;9.140;2023-05-10T12:43:30;16.20;99.90
10419;DHT22;5256;48.728;9.140;2023-05-10T12:45:55;15.90;99.90
10419;DHT22;5256;48.728;9.140;2023-05-10T12:48:21;15.60;99.90
10419;DHT22;5256;48.728;9.140;2023-05-10T12:50:47;15.50;99.90
10419;DHT22;5256;48.728;9.140;2023-05-10T12:53:16;15.30;99.90
10419;DHT22;5256;48.728;9.140;2023-05-10T12:55:43;15.20;99.90
10419;DHT22;5256;48.728;9.140;2023-05-10T12:58:10;15.10;99.90
10419;DHT22;5256;48.728;9.140;2023-05-10T13:00:35;15.20;99.90
10419;DHT22;5256;48.728;9.140;2023-05-10T13:03:03;15.20;99.90
10419;DHT22;5256;48.728;9.140;2023-05-10T13:05:31;15.40;99.90
10419;DHT22;5256;48.728;9.140;2023-05-10T13:07:56;15.60;99.90
10419;DHT22;5256;48.728;9.140;2023-05-10T13:10:22;15.80;99.90
10419;DHT22;5256;48.728;9.140;2023-05-10T13:12:49;16.10;99.90
10419;DHT22;5256;48.728;9.140;2023-05-10T13:15:14;16.30;99.90
10419;DHT22;5256;48.728;9.140;2023-05-10T13:17:40;16.60;99.90
10419;DHT22;5256;48.728;9.140;2023-05-10T13:20:08;16.70;99.90
10419;DHT22;5256;48.728;9.140;2023-05-10T13:22:35;16.80;99.90
10419;DHT22;5256;48.728;9.140;2023-05-10T13:25:00;17.10;99.90
10419;DHT22;5256;48.728;9.140;2023-05-10T13:27:26;17.40;99.90
10419;DHT22;5256;48.728;9.140;2023-05-10T13:29:51;17.40;99.90
10419;DHT22;5256;48.728;9.140;2023-05-10T13:32:17;17.40;99.90
10419;DHT22;5256;48.728;9.140;2023-05-10T13:34:43;17.30;99.90
10419;DHT22;5256;48.728;9.140;2023-05-10T13:37:08;17.20;99.90
10419;DHT22;5256;48.728;9.140;2023-05-10T13:39:34;17.30;99.90
10419;DHT22;5256;48.728;9.140;2023-05-10T13:42:00;17.30;99.90
10419;DHT22;5256;48.728;9.140;2023-05-10T13:44:25;17.10;99.90
10419;DHT22;5256;48.728;9.140;2023-05-10T13:46:51;16.90;99.90
10419;DHT22;5256;48.728;9.140;2023-05-10T13:49:17;16.60;99.90
10419;DHT22;5256;48.728;9.140;2023-05-10T13:51:43;16.70;99.90
10419;DHT22;5256;48.728;9.140;2023-05-10T13:54:09;16.90;99.90
10419;DHT22;5256;48.728;9.140;2023-05-10T13:56:34;17.20;99.90
10419;DHT22;5256;48.728;9.140;2023-05-10T13:59:00;17.60;99.90
10419;DHT22;5256;48.728;9.140;2023-05-10T14:01:26;17.70;99.90
10419;DHT22;5256;48.728;9.140;2023-05-10T14:03:51;18.00;99.90
10419;DHT22;5256;48.728;9.140;2023-05-10T14:06:17;18.20;99.90
10419;DHT22;5256;48.728;9.140;2023-05-10T14:08:42;18.30;99.90
10419;DHT22;5256;48.728;9.140;2023-05-10T14:11:09;18.40;99.90
10419;DHT22;5256;48.728;9.140;2023-05-10T14:13:34;18.40;99.90
10419;DHT22;5256;48.728;9.140;2023-05-10T14:16:00;18.20;99.90
10419;DHT22;5256;48.728;9.140;2023-05-10T14:18:26;18.20;99.90
10419;DHT22;5256;48.728;9.140;2023-05-10T14:20:52;18.00;99.90
10419;DHT22;5256;48.728;9.140;2023-05-10T14:23:18;17.50;99.90
10419;DHT22;5256;48.728;9.140;2023-05-10T14:25:45;17.70;99.90
10419;DHT22;5256;48.728;9.140;2023-05-10T14:28:10;17.80;99.90
10419;DHT22;5256;48.728;9.140;2023-05-10T14:30:37;17.60;99.90
10419;DHT22;5256;48.728;9.140;2023-05-10T14:33:03;17.50;99.90
10419;DHT22;5256;48.728;9.140;2023-05-10T14:35:29;17.40;99.90
10419;DHT22;5256;48.728;9.140;2023-05-10T14:37:56;17.30;99.90
10419;DHT22;5256;48.728;9.140;2023-05-10T14:40:22;17.40;99.90
10419;DHT22;5256;48.728;9.140;2023-05-10T14:42:48;17.40;99.90
10419;DHT22;5256;48.728;9.140;2023-05-10T14:45:13;17.30;99.90
10419;DHT22;5256;48.728;9.140;2023-05-10T14:47:39;17.40;99.90
10419;DHT22;5256;48.728;9.140;2023-05-10T14:50:05;17.60;99.90
10419;DHT22;5256;48.728;9.140;2023-05-10T14:52:31;17.60;99.90
10419;DHT22;5256;48.728;9.140;2023-05-10T14:54:56;17.60;99.90
10419;DHT22;5256;48.728;9.140;2023-05-10T14:57:24;17.40;99.90
10419;DHT22;5256;48.728;9.140;2023-05-10T14:59:49;17.20;99.90
10419;DHT22;5256;48.728;9.140;2023-05-10T15:02:15;17.10;99.90
10419;DHT22;5256;48.728;9.140;2023-05-10T15:04:41;17.00;99.90
10419;DHT22;5256;48.728;9.140;2023-05-10T15:07:06;17.20;99.90
10419;DHT22;5256;48.728;9.140;2023-05-10T15:09:32;17.40;99.90
10419;DHT22;5256;48.728;9.140;2023-05-10T15:11:58;17.40;99.90
10419;DHT22;5256;48.728;9.140;2023-05-10T15:14:23;17.40;99.90
10419;DHT22;5256;48.728;9.140;2023-05-10T15:16:49;17.40;99.90
10419;DHT22;5256;48.728;9.140;2023-05-10T15:19:14;17.40;99.90
10419;DHT22;5256;48.728;9.140;2023-05-10T15:21:40;17.40;99.90
10419;DHT22;5256;48.728;9.140;2023-05-10T15:24:09;17.30;99.90
10419;DHT22;5256;48.728;9.140;2023-05-10T15:26:34;17.50;99.90
10419;DHT22;5256;48.728;9.140;2023-05-10T15:29:00;17.60;99.90
10419;DHT22;5256;48.728;9.140;2023-05-10T15:31:26;17.60;99.90
10419;DHT22;5256;48.728;9.140;2023-05-10T15:33:57;17.60;99.90
10419;DHT22;5256;48.728;9.140;2023-05-10T15:36:24;17.60;99.90
10419;DHT22;5256;48.728;9.140;2023-05-10T15:38:49;17.70;99.90
10419;DHT22;5256;48.728;9.140;2023-05-10T15:41:15;17.80;99.90
10419;DHT22;5256;48.728;9.140;2023-05-10T15:43:41;17.70;99.90
10419;DHT22;5256;48.728;9.140;2023-05-10T15:46:06;17.60;99.90
10419;DHT22;5256;48.728;9.140;2023-05-10T15:48:32;17.50;99.90
10419;DHT22;5256;48.728;9.140;2023-05-10T15:50:58;17.30;99.90
10419;DHT22;5256;48.728;9.140;2023-05-10T15:53:23;17.50;99.90
10419;DHT22;5256;48.728;9.140;2023-05-10T15:55:49;17.40;99.90
10419;DHT22;5256;48.728;9.140;2023-05-10T15:58:15;17.60;99.90
10419;DHT22;5256;48.728;9.140;2023-05-10T16:00:41;17.50;99.90
10419;DHT22;5256;48.728;9.140;2023-05-10T16:03:06;17.50;99.90
10419;DHT22;5256;48.728;9.140;2023-05-10T16:05:32;17.50;99.90
10419;DHT22;5256;48.728;9.140;2023-05-10T16:07:59;17.40;99.90
10419;DHT22;5256;48.728;9.140;2023-05-10T16:10:24;17.40;99.90
10419;DHT22;5256;48.728;9.140;2023-05-10T16:12:50;17.20;99.90
10419;DHT22;5256;48.728;9.140;2023-05-10T16:15:16;17.20;99.90
10419;DHT22;5256;48.728;9.140;2023-05-10T16:17:41;17.10;99.90
10419;DHT22;5256;48.728;9.140;2023-05-10T16:20:07;17.00;99.90
10419;DHT22;5256;48.728;9.140;2023-05-10T16:22:34;16.70;99.90